createdAt,value
2022-10-17T00:13:06.000Z,9.7
2022-10-17T00:43:08.000Z,9.6
2022-10-17T01:13:15.000Z,9.5
2022-10-17T01:43:17.000Z,9.6
2022-10-17T02:13:20.466Z,9.5
2022-10-17T02:43:21.000Z,9.5
2022-10-17T03:13:26.000Z,9.0
2022-10-17T03:43:27.000Z,8.8
2022-10-17T04:13:28.000Z,8.7
2022-10-17T04:43:29.000Z,8.4
2022-10-17T05:13:38.000Z,8.2
2022-10-17T05:43:42.000Z,8.1
2022-10-17T06:13:49.000Z,7.8
2022-10-17T06:44:00.000Z,8.0
2022-10-17T07:14:11.000Z,8.4
2022-10-17T07:44:22.000Z,9.2
2022-10-17T08:14:32.792Z,9.9
2022-10-17T08:44:33.000Z,11.2
2022-10-17T09:14:43.000Z,13.0
2022-10-17T09:44:46.000Z,14.7
2022-10-17T10:14:48.000Z,15.6
2022-10-17T10:44:52.000Z,16.3
2022-10-17T11:14:53.000Z,17.2
2022-10-17T11:44:54.000Z,19.7
2022-10-17T12:15:02.000Z,22.5
2022-10-17T12:45:05.787Z,23.2
2022-10-17T13:15:13.000Z,23.8
2022-10-17T13:45:22.000Z,21.8
2022-10-17T14:15:32.000Z,21.0
2022-10-17T14:45:34.000Z,20.1
2022-10-17T15:15:37.960Z,18.1
2022-10-17T15:45:47.007Z,17.4
2022-10-17T16:15:56.970Z,16.3
2022-10-17T16:46:04.956Z,15.1
2022-10-17T17:16:07.944Z,13.8
2022-10-17T17:46:08.991Z,13
2022-10-17T18:16:18.252Z,12.5
2022-10-17T18:46:21.340Z,11.9
2022-10-17T19:16:21.438Z,11.5
2022-10-17T19:46:25.369Z,11.2
2022-10-17T20:16:36.290Z,10.7
2022-10-17T20:46:37.435Z,10.6
2022-10-17T21:16:39.372Z,10.3
2022-10-17T21:46:40.000Z,10.0
2022-10-17T22:16:41.000Z,9.7
2022-10-17T22:46:51.000Z,9.7
2022-10-17T23:16:54.000Z,9.4
2022-10-17T23:47:03.000Z,9.1
